createdAt,value
2019-05-29T00:03:39.402Z,77.50
2019-05-29T00:08:44.633Z,77.22
2019-05-29T00:13:50.262Z,76.92
2019-05-29T00:18:58.372Z,76.07
2019-05-29T00:24:03.901Z,75.01
2019-05-29T00:29:09.675Z,74.32
2019-05-29T00:34:15.304Z,74.04
2019-05-29T00:39:21.664Z,73.93
2019-05-29T00:44:34.338Z,73.62
2019-05-29T00:49:34.135Z,73.67
2019-05-29T00:54:39.501Z,73.20
2019-05-29T00:59:44.837Z,73.18
2019-05-29T01:04:50.053Z,73.25
2019-05-29T01:09:55.368Z,73.33
2019-05-29T01:15:00.673Z,74.98
2019-05-29T01:20:06.998Z,76.11
2019-05-29T01:25:12.478Z,76.39
2019-05-29T01:30:18.997Z,77.21
2019-05-29T01:35:24.529Z,77.98
2019-05-29T01:40:29.973Z,77.66
2019-05-29T01:45:35.233Z,77.81
2019-05-29T01:50:40.556Z,79.33
2019-05-29T01:55:46.155Z,81.92
2019-05-29T02:00:51.933Z,81.43
2019-05-29T02:05:57.618Z,81.43
2019-05-29T02:11:03.096Z,80.42
2019-05-29T02:16:08.726Z,80.72
2019-05-29T02:21:14.025Z,80.84
2019-05-29T02:26:20.375Z,81.52
2019-05-29T02:31:29.059Z,81.49
2019-05-29T02:36:34.275Z,81.46
2019-05-29T02:41:39.537Z,81.66
2019-05-29T02:46:44.758Z,82.06
2019-05-29T02:51:50.082Z,82.03
2019-05-29T02:56:55.406Z,83.22
2019-05-29T03:02:00.640Z,83.14
2019-05-29T03:07:05.892Z,83.38
2019-05-29T03:12:11.190Z,82.78
2019-05-29T03:17:16.473Z,82.66
2019-05-29T03:22:21.747Z,82.97
2019-05-29T03:27:27.831Z,83.16
2019-05-29T03:32:42.579Z,83.71
2019-05-29T03:37:40.199Z,83.63
2019-05-29T03:42:45.433Z,83.63
2019-05-29T03:47:50.680Z,83.36
2019-05-29T03:52:56.064Z,83.62
2019-05-29T03:58:01.510Z,83.17
2019-05-29T04:03:06.732Z,83.02
2019-05-29T04:08:13.067Z,82.93
2019-05-29T04:13:18.334Z,83.05
2019-05-29T04:18:25.177Z,82.98
2019-05-29T04:23:35.978Z,82.93
2019-05-29T04:28:41.428Z,82.76
2019-05-29T04:33:46.740Z,82.75
2019-05-29T04:38:51.995Z,82.21
2019-05-29T04:43:57.359Z,82.28
2019-05-29T04:49:02.670Z,82.20
2019-05-29T04:54:08.659Z,82.46
2019-05-29T04:59:15.626Z,82.79
2019-05-29T05:04:20.938Z,83.06
2019-05-29T05:09:26.290Z,83.14
2019-05-29T05:14:33.625Z,82.25
2019-05-29T05:19:40.063Z,82.68
2019-05-29T05:24:45.341Z,81.74
2019-05-29T05:29:52.253Z,82.15
2019-05-29T05:34:57.459Z,80.82
2019-05-29T05:40:02.718Z,79.63
2019-05-29T05:45:08.201Z,78.23
2019-05-29T05:50:13.813Z,77.74
2019-05-29T05:55:19.038Z,76.15
2019-05-29T06:00:35.842Z,74.92
2019-05-29T06:05:42.346Z,73.90
2019-05-29T06:10:51.170Z,72.24
2019-05-29T06:15:55.637Z,69.14
2019-05-29T06:21:01.333Z,69.64
2019-05-29T06:26:06.777Z,68.29
2019-05-29T06:31:12.463Z,67.48
2019-05-29T06:36:17.900Z,65.25
2019-05-29T06:41:23.452Z,63.13
2019-05-29T06:46:29.146Z,62.64
2019-05-29T06:51:35.196Z,62.63
2019-05-29T06:56:40.413Z,61.45
2019-05-29T07:01:45.749Z,60.92
2019-05-29T07:06:51.369Z,61.83
2019-05-29T07:11:57.051Z,62.36
2019-05-29T07:17:02.280Z,63.56
2019-05-29T07:22:07.499Z,62.02
2019-05-29T07:27:13.691Z,62.78
2019-05-29T07:32:19.084Z,60.85
2019-05-29T07:37:24.453Z,58.43
2019-05-29T07:42:29.748Z,57.36
2019-05-29T07:47:35.559Z,56.70
2019-05-29T07:52:41.161Z,54.27
2019-05-29T07:57:47.188Z,53.37
2019-05-29T08:02:52.500Z,54.03
2019-05-29T08:07:57.789Z,51.88
2019-05-29T08:13:03.946Z,49.58
2019-05-29T08:18:09.365Z,51.17
2019-05-29T08:23:14.660Z,49.47
2019-05-29T08:28:22.702Z,50.03
2019-05-29T08:33:28.999Z,48.68
2019-05-29T08:38:34.353Z,49.22
2019-05-29T08:43:39.803Z,51.50
2019-05-29T08:48:45.884Z,50.95
2019-05-29T08:53:53.426Z,53.11
2019-05-29T08:58:59.340Z,52.21
2019-05-29T09:04:05.917Z,48.76
2019-05-29T09:09:11.206Z,51.95
2019-05-29T09:14:16.520Z,49.43
2019-05-29T09:19:22.848Z,51.84
2019-05-29T09:24:28.491Z,50.70
2019-05-29T09:29:33.759Z,49.40
2019-05-29T09:34:38.978Z,49.23
2019-05-29T09:39:44.294Z,49.39
2019-05-29T09:44:49.555Z,48.25
2019-05-29T09:49:55.034Z,48.88
2019-05-29T09:55:00.478Z,47.04
2019-05-29T10:00:06.620Z,47.39
2019-05-29T10:05:12.099Z,48.02
2019-05-29T10:10:19.009Z,46.45
2019-05-29T10:15:24.675Z,45.91
2019-05-29T10:20:29.887Z,44.97
2019-05-29T10:25:35.239Z,44.09
2019-05-29T10:30:42.123Z,46.70
2019-05-29T10:35:49.644Z,46.50
2019-05-29T10:41:05.654Z,41.60
2019-05-29T10:46:02.094Z,43.12
2019-05-29T10:51:07.305Z,40.01
2019-05-29T10:56:12.610Z,41.50
2019-05-29T11:01:17.857Z,41.97
2019-05-29T11:06:23.187Z,44.24
2019-05-29T11:11:28.476Z,43.93
2019-05-29T11:16:33.711Z,43.77
2019-05-29T11:21:38.964Z,42.44
2019-05-29T11:26:44.253Z,41.92
2019-05-29T11:31:50.636Z,39.03
2019-05-29T11:38:40.088Z,42.34
2019-05-29T11:43:45.664Z,38.91
2019-05-29T11:48:51.158Z,39.97
2019-05-29T11:53:57.519Z,39.31
2019-05-29T11:59:03.375Z,39.31
2019-05-29T12:04:24.311Z,38.55
2019-05-29T12:09:31.479Z,37.80
2019-05-29T12:14:24.272Z,37.29
2019-05-29T12:19:32.126Z,36.46
2019-05-29T12:24:37.448Z,34.71
2019-05-29T12:29:44.047Z,33.06
2019-05-29T12:34:53.547Z,31.50
2019-05-29T12:39:57.515Z,29.81
2019-05-29T12:45:04.292Z,29.89
2019-05-29T12:50:11.957Z,27.91
2019-05-29T12:55:17.533Z,31.36
2019-05-29T13:00:23.338Z,30.26
2019-05-29T13:05:29.025Z,29.17
2019-05-29T13:10:35.978Z,26.58
2019-05-29T13:15:41.452Z,28.75
2019-05-29T13:20:48.163Z,29.80
2019-05-29T13:25:53.724Z,28.55
2019-05-29T13:30:59.828Z,26.88
2019-05-29T13:36:06.708Z,25.98
2019-05-29T13:41:12.143Z,27.90
2019-05-29T13:46:17.577Z,26.26
2019-05-29T13:51:23.016Z,27.38
2019-05-29T13:56:29.186Z,26.99
2019-05-29T14:01:34.580Z,26.48
2019-05-29T14:06:41.917Z,26.45
2019-05-29T14:11:48.670Z,25.54
2019-05-29T14:16:54.355Z,25.27
2019-05-29T14:22:01.130Z,24.24
2019-05-29T14:27:07.482Z,28.29
2019-05-29T14:32:13.840Z,27.09
2019-05-29T14:37:19.358Z,27.94
2019-05-29T14:42:24.644Z,28.46
2019-05-29T14:47:30.019Z,26.08
2019-05-29T14:52:35.820Z,24.45
2019-05-29T14:57:41.202Z,23.78
2019-05-29T15:02:46.602Z,23.88
2019-05-29T15:07:52.036Z,23.64
2019-05-29T15:12:58.526Z,21.61
2019-05-29T15:18:04.916Z,21.63
2019-05-29T15:23:11.496Z,21.93
2019-05-29T15:28:17.960Z,21.44
2019-05-29T15:33:23.334Z,21.38
2019-05-29T15:38:29.365Z,21.37
2019-05-29T15:43:34.700Z,20.28
2019-05-29T15:48:40.424Z,20.58
2019-05-29T15:53:47.937Z,20.65
2019-05-29T15:58:53.306Z,23.41
2019-05-29T16:03:58.527Z,25.14
2019-05-29T16:09:05.454Z,27.80
2019-05-29T16:14:10.792Z,29.84
2019-05-29T16:19:16.313Z,30.71
2019-05-29T16:24:23.016Z,30.94
2019-05-29T16:29:29.161Z,31.89
2019-05-29T16:34:34.398Z,32.38
2019-05-29T16:39:39.747Z,33.87
2019-05-29T16:44:45.053Z,35.14
2019-05-29T16:49:50.338Z,34.78
2019-05-29T16:54:55.817Z,35.02
2019-05-29T17:00:01.205Z,35.10
2019-05-29T17:05:06.835Z,37.02
2019-05-29T17:10:16.178Z,37.00
2019-05-29T17:15:22.711Z,38.19
2019-05-29T17:20:44.904Z,39.83
2019-05-29T17:25:51.190Z,41.08
2019-05-29T17:30:56.595Z,40.63
2019-05-29T17:36:01.910Z,41.11
2019-05-29T17:41:07.181Z,40.26
2019-05-29T17:46:12.742Z,42.04
2019-05-29T17:51:18.105Z,42.38
2019-05-29T17:56:34.575Z,42.66
2019-05-29T18:01:30.954Z,42.80
2019-05-29T18:06:37.735Z,42.01
2019-05-29T18:11:47.243Z,42.53
2019-05-29T18:16:50.213Z,43.94
2019-05-29T18:21:55.705Z,44.48
2019-05-29T18:27:02.076Z,45.95
2019-05-29T18:32:07.518Z,46.13
2019-05-29T18:37:13.255Z,46.20
2019-05-29T18:42:20.396Z,45.67
2019-05-29T18:47:27.011Z,45.32
2019-05-29T18:52:32.974Z,46.76
2019-05-29T18:57:38.574Z,47.16
2019-05-29T19:02:43.854Z,45.94
2019-05-29T19:07:49.348Z,47.54
2019-05-29T19:12:55.169Z,46.60
2019-05-29T19:18:00.413Z,48.23
2019-05-29T19:23:05.825Z,50.28
2019-05-29T19:28:11.838Z,50.39
2019-05-29T19:33:18.160Z,50.87
2019-05-29T19:38:23.745Z,51.69
2019-05-29T19:43:30.344Z,51.58
2019-05-29T19:48:35.659Z,53.21
2019-05-29T19:53:42.058Z,49.53
2019-05-29T19:58:47.335Z,49.00
2019-05-29T20:03:52.583Z,48.51
2019-05-29T20:08:58.039Z,48.94
2019-05-29T20:14:07.254Z,48.84
2019-05-29T20:19:10.307Z,49.86
2019-05-29T20:24:15.754Z,50.81
2019-05-29T20:29:21.064Z,54.32
2019-05-29T20:34:26.388Z,57.44
2019-05-29T20:39:32.966Z,57.13
2019-05-29T20:44:38.943Z,57.08
2019-05-29T20:49:47.457Z,57.48
2019-05-29T20:54:51.683Z,57.83
2019-05-29T20:59:57.101Z,58.82
2019-05-29T21:05:02.415Z,60.38
2019-05-29T21:10:09.040Z,59.85
2019-05-29T21:15:14.970Z,59.35
2019-05-29T21:20:21.056Z,59.46
2019-05-29T21:25:26.366Z,59.57
2019-05-29T21:30:31.587Z,59.74
2019-05-29T21:35:37.993Z,60.04
2019-05-29T21:40:44.560Z,61.08
2019-05-29T21:45:50.058Z,62.03
2019-05-29T21:50:55.352Z,62.10
2019-05-29T21:56:00.893Z,62.57
2019-05-29T22:01:07.114Z,62.71
2019-05-29T22:06:12.798Z,63.77
2019-05-29T22:11:18.211Z,63.35
2019-05-29T22:16:23.717Z,63.60
2019-05-29T22:21:29.132Z,63.27
2019-05-29T22:26:35.384Z,65.81
2019-05-29T22:31:40.725Z,64.70
2019-05-29T22:36:46.006Z,65.59
2019-05-29T22:41:51.517Z,66.38
2019-05-29T22:46:58.342Z,66.48
2019-05-29T22:52:03.741Z,65.26
2019-05-29T22:57:09.319Z,66.17
2019-05-29T23:02:14.632Z,66.10
2019-05-29T23:07:19.898Z,64.96
2019-05-29T23:12:25.189Z,66.47
2019-05-29T23:17:31.491Z,65.37
2019-05-29T23:22:38.489Z,65.46
2019-05-29T23:27:43.898Z,65.90
2019-05-29T23:32:49.219Z,65.49
2019-05-29T23:37:55.034Z,66.35
2019-05-29T23:43:01.589Z,66.47
2019-05-29T23:48:06.846Z,68.00
2019-05-29T23:53:12.084Z,67.45
2019-05-29T23:58:17.634Z,67.70
